sensor_id;sensor_type;location;lat;lon;timestamp;temperature;humidity
49124;DHT22;48506;48.202;16.274;2024-03-25T00:01:38;7.50;91.40
49124;DHT22;48506;48.202;16.274;2024-03-25T00:04:04;7.50;91.40
49124;DHT22;48506;48.202;16.274;2024-03-25T00:06:30;7.50;91.30
49124;DHT22;48506;48.202;16.274;2024-03-25T00:09:00;7.50;91.20
49124;DHT22;48506;48.202;16.274;2024-03-25T00:11:26;7.50;91.40
49124;DHT22;48506;48.202;16.274;2024-03-25T00:13:52;7.50;91.10
49124;DHT22;48506;48.202;16.274;2024-03-25T00:16:17;7.50;91.10
49124;DHT22;48506;48.202;16.274;2024-03-25T00:18:44;7.50;91.00
49124;DHT22;48506;48.202;16.274;2024-03-25T00:21:09;7.50;91.10
49124;DHT22;48506;48.202;16.274;2024-03-25T00:23:36;7.40;91.30
49124;DHT22;48506;48.202;16.274;2024-03-25T00:26:02;7.40;91.20
49124;DHT22;48506;48.202;16.274;2024-03-25T00:28:28;7.50;91.60
49124;DHT22;48506;48.202;16.274;2024-03-25T00:30:53;7.50;91.40
49124;DHT22;48506;48.202;16.274;2024-03-25T00:33:19;7.50;91.30
49124;DHT22;48506;48.202;16.274;2024-03-25T00:35:45;7.40;91.50
49124;DHT22;48506;48.202;16.274;2024-03-25T00:38:12;7.50;91.50
49124;DHT22;48506;48.202;16.274;2024-03-25T00:40:38;7.50;91.50
49124;DHT22;48506;48.202;16.274;2024-03-25T00:43:04;7.50;91.50
49124;DHT22;48506;48.202;16.274;2024-03-25T00:45:29;7.50;91.40
49124;DHT22;48506;48.202;16.274;2024-03-25T00:47:58;7.50;91.30
49124;DHT22;48506;48.202;16.274;2024-03-25T00:50:25;7.50;91.40
49124;DHT22;48506;48.202;16.274;2024-03-25T00:52:51;7.50;91.50
49124;DHT22;48506;48.202;16.274;2024-03-25T00:55:17;7.50;91.40
49124;DHT22;48506;48.202;16.274;2024-03-25T00:57:43;7.50;91.40
49124;DHT22;48506;48.202;16.274;2024-03-25T01:00:10;7.50;91.50
49124;DHT22;48506;48.202;16.274;2024-03-25T01:02:36;7.50;91.60
49124;DHT22;48506;48.202;16.274;2024-03-25T01:05:04;7.50;91.80
49124;DHT22;48506;48.202;16.274;2024-03-25T01:07:31;7.40;91.80
49124;DHT22;48506;48.202;16.274;2024-03-25T01:09:57;7.50;91.80
49124;DHT22;48506;48.202;16.274;2024-03-25T01:12:24;7.50;91.80
49124;DHT22;48506;48.202;16.274;2024-03-25T01:14:52;7.50;91.90
49124;DHT22;48506;48.202;16.274;2024-03-25T01:17:18;7.40;91.90
49124;DHT22;48506;48.202;16.274;2024-03-25T01:19:44;7.40;92.00
49124;DHT22;48506;48.202;16.274;2024-03-25T01:22:09;7.40;92.00
49124;DHT22;48506;48.202;16.274;2024-03-25T01:24:35;7.40;91.90
49124;DHT22;48506;48.202;16.274;2024-03-25T01:27:02;7.40;92.00
49124;DHT22;48506;48.202;16.274;2024-03-25T01:29:28;7.40;92.20
49124;DHT22;48506;48.202;16.274;2024-03-25T01:31:54;7.40;92.10
49124;DHT22;48506;48.202;16.274;2024-03-25T01:34:20;7.50;91.90
49124;DHT22;48506;48.202;16.274;2024-03-25T01:36:46;7.40;91.80
49124;DHT22;48506;48.202;16.274;2024-03-25T01:39:12;7.40;92.00
49124;DHT22;48506;48.202;16.274;2024-03-25T01:41:39;7.30;92.10
49124;DHT22;48506;48.202;16.274;2024-03-25T01:44:05;7.40;92.20
49124;DHT22;48506;48.202;16.274;2024-03-25T01:46:31;7.40;92.10
49124;DHT22;48506;48.202;16.274;2024-03-25T01:48:58;7.40;92.00
49124;DHT22;48506;48.202;16.274;2024-03-25T01:51:24;7.40;91.80
49124;DHT22;48506;48.202;16.274;2024-03-25T01:53:53;7.40;91.80
49124;DHT22;48506;48.202;16.274;2024-03-25T01:56:22;7.30;91.70
49124;DHT22;48506;48.202;16.274;2024-03-25T01:58:50;7.30;91.90
49124;DHT22;48506;48.202;16.274;2024-03-25T02:01:16;7.40;91.90
49124;DHT22;48506;48.202;16.274;2024-03-25T02:03:43;7.30;92.00
49124;DHT22;48506;48.202;16.274;2024-03-25T02:06:13;7.30;92.00
49124;DHT22;48506;48.202;16.274;2024-03-25T02:08:41;7.30;92.00
49124;DHT22;48506;48.202;16.274;2024-03-25T02:11:08;7.30;92.00
49124;DHT22;48506;48.202;16.274;2024-03-25T02:13:38;7.30;92.00
49124;DHT22;48506;48.202;16.274;2024-03-25T02:16:05;7.20;92.20
49124;DHT22;48506;48.202;16.274;2024-03-25T02:18:31;7.20;92.20
49124;DHT22;48506;48.202;16.274;2024-03-25T02:20:58;7.20;92.20
49124;DHT22;48506;48.202;16.274;2024-03-25T02:23:25;7.20;92.20
49124;DHT22;48506;48.202;16.274;2024-03-25T02:25:52;7.20;92.30
49124;DHT22;48506;48.202;16.274;2024-03-25T02:28:18;7.20;92.30
49124;DHT22;48506;48.202;16.274;2024-03-25T02:30:44;7.20;92.50
49124;DHT22;48506;48.202;16.274;2024-03-25T02:33:11;7.10;92.50
49124;DHT22;48506;48.202;16.274;2024-03-25T02:35:38;7.10;92.50
49124;DHT22;48506;48.202;16.274;2024-03-25T02:38:06;7.10;92.70
49124;DHT22;48506;48.202;16.274;2024-03-25T02:40:32;7.10;92.80
49124;DHT22;48506;48.202;16.274;2024-03-25T02:42:59;7.00;92.70
49124;DHT22;48506;48.202;16.274;2024-03-25T02:45:25;7.00;92.90
49124;DHT22;48506;48.202;16.274;2024-03-25T02:47:51;7.00;93.00
49124;DHT22;48506;48.202;16.274;2024-03-25T02:50:17;7.00;93.00
49124;DHT22;48506;48.202;16.274;2024-03-25T02:52:43;7.00;93.10
49124;DHT22;48506;48.202;16.274;2024-03-25T02:55:09;7.00;93.20
49124;DHT22;48506;48.202;16.274;2024-03-25T02:57:35;6.90;93.30
49124;DHT22;48506;48.202;16.274;2024-03-25T03:00:01;6.90;93.40
49124;DHT22;48506;48.202;16.274;2024-03-25T03:02:28;6.90;93.40
49124;DHT22;48506;48.202;16.274;2024-03-25T03:04:53;6.90;93.50
49124;DHT22;48506;48.202;16.274;2024-03-25T03:07:19;6.90;93.50
49124;DHT22;48506;48.202;16.274;2024-03-25T03:09:45;6.90;93.50
49124;DHT22;48506;48.202;16.274;2024-03-25T03:12:11;6.90;93.60
49124;DHT22;48506;48.202;16.274;2024-03-25T03:14:38;6.90;93.60
49124;DHT22;48506;48.202;16.274;2024-03-25T03:17:04;6.90;93.60
49124;DHT22;48506;48.202;16.274;2024-03-25T03:19:31;6.90;93.60
49124;DHT22;48506;48.202;16.274;2024-03-25T03:21:57;6.90;93.60
49124;DHT22;48506;48.202;16.274;2024-03-25T03:24:23;6.80;93.60
49124;DHT22;48506;48.202;16.274;2024-03-25T03:26:49;6.90;93.60
49124;DHT22;48506;48.202;16.274;2024-03-25T03:29:15;6.90;93.50
49124;DHT22;48506;48.202;16.274;2024-03-25T03:31:41;6.90;93.40
49124;DHT22;48506;48.202;16.274;2024-03-25T03:34:07;6.90;93.40
49124;DHT22;48506;48.202;16.274;2024-03-25T03:36:33;6.90;93.30
49124;DHT22;48506;48.202;16.274;2024-03-25T03:38:59;6.90;93.30
49124;DHT22;48506;48.202;16.274;2024-03-25T03:41:25;6.90;93.30
49124;DHT22;48506;48.202;16.274;2024-03-25T03:43:51;6.90;93.30
49124;DHT22;48506;48.202;16.274;2024-03-25T03:46:17;6.90;93.20
49124;DHT22;48506;48.202;16.274;2024-03-25T03:48:43;6.90;93.20
49124;DHT22;48506;48.202;16.274;2024-03-25T03:51:09;6.90;93.20
49124;DHT22;48506;48.202;16.274;2024-03-25T03:53:35;6.90;93.10
49124;DHT22;48506;48.202;16.274;2024-03-25T03:56:03;7.00;93.00
49124;DHT22;48506;48.202;16.274;2024-03-25T03:58:33;6.90;92.90
49124;DHT22;48506;48.202;16.274;2024-03-25T04:00:59;7.00;92.90
49124;DHT22;48506;48.202;16.274;2024-03-25T04:03:26;7.00;92.90
49124;DHT22;48506;48.202;16.274;2024-03-25T04:05:52;7.00;92.80
49124;DHT22;48506;48.202;16.274;2024-03-25T04:08:18;7.00;92.80
49124;DHT22;48506;48.202;16.274;2024-03-25T04:10:45;7.00;92.70
49124;DHT22;48506;48.202;16.274;2024-03-25T04:13:11;7.00;92.60
49124;DHT22;48506;48.202;16.274;2024-03-25T04:15:39;7.00;92.70
49124;DHT22;48506;48.202;16.274;2024-03-25T04:18:07;7.00;92.60
49124;DHT22;48506;48.202;16.274;2024-03-25T04:20:40;7.00;92.50
49124;DHT22;48506;48.202;16.274;2024-03-25T04:23:06;7.10;92.40
49124;DHT22;48506;48.202;16.274;2024-03-25T04:25:33;7.10;92.40
49124;DHT22;48506;48.202;16.274;2024-03-25T04:28:00;7.00;92.40
49124;DHT22;48506;48.202;16.274;2024-03-25T04:30:26;7.10;92.40
49124;DHT22;48506;48.202;16.274;2024-03-25T04:32:52;7.10;92.30
49124;DHT22;48506;48.202;16.274;2024-03-25T04:35:18;7.10;92.30
49124;DHT22;48506;48.202;16.274;2024-03-25T04:37:44;7.10;92.30
49124;DHT22;48506;48.202;16.274;2024-03-25T04:40:11;7.10;92.20
49124;DHT22;48506;48.202;16.274;2024-03-25T04:42:41;7.20;92.20
49124;DHT22;48506;48.202;16.274;2024-03-25T04:45:07;7.20;92.20
49124;DHT22;48506;48.202;16.274;2024-03-25T04:47:33;7.10;92.40
49124;DHT22;48506;48.202;16.274;2024-03-25T04:49:59;7.10;92.40
49124;DHT22;48506;48.202;16.274;2024-03-25T04:52:25;7.10;92.40
49124;DHT22;48506;48.202;16.274;2024-03-25T04:54:52;7.10;92.40
49124;DHT22;48506;48.202;16.274;2024-03-25T04:57:18;7.20;92.50
49124;DHT22;48506;48.202;16.274;2024-03-25T04:59:44;7.10;92.50
49124;DHT22;48506;48.202;16.274;2024-03-25T05:02:10;7.20;92.40
49124;DHT22;48506;48.202;16.274;2024-03-25T05:04:36;7.10;92.50
49124;DHT22;48506;48.202;16.274;2024-03-25T05:07:02;7.20;92.60
49124;DHT22;48506;48.202;16.274;2024-03-25T05:09:28;7.20;92.50
49124;DHT22;48506;48.202;16.274;2024-03-25T05:11:54;7.20;92.40
49124;DHT22;48506;48.202;16.274;2024-03-25T05:14:21;7.30;92.40
49124;DHT22;48506;48.202;16.274;2024-03-25T05:16:46;7.30;92.40
49124;DHT22;48506;48.202;16.274;2024-03-25T05:19:12;7.30;92.40
49124;DHT22;48506;48.202;16.274;2024-03-25T05:21:38;7.30;92.40
49124;DHT22;48506;48.202;16.274;2024-03-25T05:24:05;7.30;92.40
49124;DHT22;48506;48.202;16.274;2024-03-25T05:26:31;7.30;92.30
49124;DHT22;48506;48.202;16.274;2024-03-25T05:28:57;7.40;92.20
49124;DHT22;48506;48.202;16.274;2024-03-25T05:31:24;7.50;92.10
49124;DHT22;48506;48.202;16.274;2024-03-25T05:33:51;7.50;92.00
49124;DHT22;48506;48.202;16.274;2024-03-25T05:36:17;7.60;92.10
49124;DHT22;48506;48.202;16.274;2024-03-25T05:38:43;7.60;92.00
49124;DHT22;48506;48.202;16.274;2024-03-25T05:41:12;7.60;91.90
49124;DHT22;48506;48.202;16.274;2024-03-25T05:43:38;7.70;91.70
49124;DHT22;48506;48.202;16.274;2024-03-25T05:46:04;7.80;91.60
49124;DHT22;48506;48.202;16.274;2024-03-25T05:48:30;7.90;91.50
49124;DHT22;48506;48.202;16.274;2024-03-25T05:51:06;7.90;91.50
49124;DHT22;48506;48.202;16.274;2024-03-25T05:53:33;8.00;91.40
49124;DHT22;48506;48.202;16.274;2024-03-25T05:55:59;8.00;91.00
49124;DHT22;48506;48.202;16.274;2024-03-25T05:58:26;8.00;91.20
49124;DHT22;48506;48.202;16.274;2024-03-25T06:00:52;8.00;91.00
49124;DHT22;48506;48.202;16.274;2024-03-25T06:03:21;8.10;90.90
49124;DHT22;48506;48.202;16.274;2024-03-25T06:05:48;8.10;90.90
49124;DHT22;48506;48.202;16.274;2024-03-25T06:08:14;8.10;90.80
49124;DHT22;48506;48.202;16.274;2024-03-25T06:10:59;8.10;90.70
49124;DHT22;48506;48.202;16.274;2024-03-25T06:13:26;8.10;90.70
49124;DHT22;48506;48.202;16.274;2024-03-25T06:15:52;8.10;90.60
49124;DHT22;48506;48.202;16.274;2024-03-25T06:18:19;8.10;90.50
49124;DHT22;48506;48.202;16.274;2024-03-25T06:20:45;8.20;90.70
49124;DHT22;48506;48.202;16.274;2024-03-25T06:23:24;8.20;90.60
49124;DHT22;48506;48.202;16.274;2024-03-25T06:25:52;8.20;90.80
49124;DHT22;48506;48.202;16.274;2024-03-25T06:28:19;8.30;90.40
49124;DHT22;48506;48.202;16.274;2024-03-25T06:30:46;8.40;90.60
49124;DHT22;48506;48.202;16.274;2024-03-25T06:33:30;8.50;90.10
49124;DHT22;48506;48.202;16.274;2024-03-25T06:36:15;8.50;90.00
49124;DHT22;48506;48.202;16.274;2024-03-25T06:38:41;8.60;90.00
49124;DHT22;48506;48.202;16.274;2024-03-25T06:41:07;8.70;90.00
49124;DHT22;48506;48.202;16.274;2024-03-25T06:43:33;8.70;90.00
49124;DHT22;48506;48.202;16.274;2024-03-25T06:45:59;8.80;89.90
49124;DHT22;48506;48.202;16.274;2024-03-25T06:48:25;8.90;89.30
49124;DHT22;48506;48.202;16.274;2024-03-25T06:53:21;8.90;88.80
49124;DHT22;48506;48.202;16.274;2024-03-25T06:55:58;8.90;88.80
49124;DHT22;48506;48.202;16.274;2024-03-25T06:58:26;8.90;88.70
49124;DHT22;48506;48.202;16.274;2024-03-25T07:00:54;9.00;88.80
49124;DHT22;48506;48.202;16.274;2024-03-25T07:03:21;9.00;89.00
49124;DHT22;48506;48.202;16.274;2024-03-25T07:05:49;8.90;88.60
49124;DHT22;48506;48.202;16.274;2024-03-25T07:08:15;9.00;88.20
49124;DHT22;48506;48.202;16.274;2024-03-25T07:10:42;9.10;87.80
49124;DHT22;48506;48.202;16.274;2024-03-25T07:13:08;9.00;87.80
49124;DHT22;48506;48.202;16.274;2024-03-25T07:15:34;9.00;87.70
49124;DHT22;48506;48.202;16.274;2024-03-25T07:18:00;9.00;87.70
49124;DHT22;48506;48.202;16.274;2024-03-25T07:20:26;9.00;87.80
49124;DHT22;48506;48.202;16.274;2024-03-25T07:22:55;9.00;87.90
49124;DHT22;48506;48.202;16.274;2024-03-25T07:25:22;9.10;88.20
49124;DHT22;48506;48.202;16.274;2024-03-25T07:27:49;9.30;87.70
49124;DHT22;48506;48.202;16.274;2024-03-25T07:30:15;9.40;88.20
49124;DHT22;48506;48.202;16.274;2024-03-25T07:32:41;9.60;86.70
49124;DHT22;48506;48.202;16.274;2024-03-25T07:35:07;9.70;85.30
49124;DHT22;48506;48.202;16.274;2024-03-25T07:37:35;9.70;84.80
49124;DHT22;48506;48.202;16.274;2024-03-25T07:40:01;9.70;84.60
49124;DHT22;48506;48.202;16.274;2024-03-25T07:42:27;9.60;85.70
49124;DHT22;48506;48.202;16.274;2024-03-25T07:44:53;9.60;84.60
49124;DHT22;48506;48.202;16.274;2024-03-25T07:47:19;9.70;84.80
49124;DHT22;48506;48.202;16.274;2024-03-25T07:49:44;9.80;84.80
49124;DHT22;48506;48.202;16.274;2024-03-25T07:52:11;10.00;85.50
49124;DHT22;48506;48.202;16.274;2024-03-25T07:54:36;10.20;84.00
49124;DHT22;48506;48.202;16.274;2024-03-25T07:57:04;10.50;84.60
49124;DHT22;48506;48.202;16.274;2024-03-25T07:59:30;10.80;82.50
49124;DHT22;48506;48.202;16.274;2024-03-25T08:01:56;10.90;82.80
49124;DHT22;48506;48.202;16.274;2024-03-25T08:04:22;11.10;81.80
49124;DHT22;48506;48.202;16.274;2024-03-25T08:06:48;11.20;81.80
49124;DHT22;48506;48.202;16.274;2024-03-25T08:09:14;11.30;81.40
49124;DHT22;48506;48.202;16.274;2024-03-25T08:11:41;11.50;81.40
49124;DHT22;48506;48.202;16.274;2024-03-25T08:14:10;11.80;81.30
49124;DHT22;48506;48.202;16.274;2024-03-25T08:16:36;12.00;79.00
49124;DHT22;48506;48.202;16.274;2024-03-25T08:19:02;12.00;78.50
49124;DHT22;48506;48.202;16.274;2024-03-25T08:21:28;12.00;78.80
49124;DHT22;48506;48.202;16.274;2024-03-25T08:23:54;12.00;78.70
49124;DHT22;48506;48.202;16.274;2024-03-25T08:26:20;12.10;78.30
49124;DHT22;48506;48.202;16.274;2024-03-25T08:28:46;12.00;78.40
49124;DHT22;48506;48.202;16.274;2024-03-25T08:31:11;12.10;78.20
49124;DHT22;48506;48.202;16.274;2024-03-25T08:33:37;12.10;77.40
49124;DHT22;48506;48.202;16.274;2024-03-25T08:36:03;12.10;77.60
49124;DHT22;48506;48.202;16.274;2024-03-25T08:38:29;12.20;78.40
49124;DHT22;48506;48.202;16.274;2024-03-25T08:40:55;12.20;78.30
49124;DHT22;48506;48.202;16.274;2024-03-25T08:43:21;12.40;77.00
49124;DHT22;48506;48.202;16.274;2024-03-25T08:45:47;12.50;76.10
49124;DHT22;48506;48.202;16.274;2024-03-25T08:48:13;12.50;76.80
49124;DHT22;48506;48.202;16.274;2024-03-25T08:50:39;12.60;78.20
49124;DHT22;48506;48.202;16.274;2024-03-25T08:53:05;12.60;75.20
49124;DHT22;48506;48.202;16.274;2024-03-25T08:55:31;12.20;75.10
49124;DHT22;48506;48.202;16.274;2024-03-25T08:57:57;12.10;75.80
49124;DHT22;48506;48.202;16.274;2024-03-25T09:00:27;11.90;76.70
49124;DHT22;48506;48.202;16.274;2024-03-25T09:02:54;11.80;77.70
49124;DHT22;48506;48.202;16.274;2024-03-25T09:05:20;11.70;77.10
49124;DHT22;48506;48.202;16.274;2024-03-25T09:07:49;11.50;77.70
49124;DHT22;48506;48.202;16.274;2024-03-25T09:10:20;11.60;78.50
49124;DHT22;48506;48.202;16.274;2024-03-25T09:13:05;11.80;77.20
49124;DHT22;48506;48.202;16.274;2024-03-25T09:15:31;11.90;76.50
49124;DHT22;48506;48.202;16.274;2024-03-25T09:17:58;12.10;77.00
49124;DHT22;48506;48.202;16.274;2024-03-25T09:20:23;12.40;74.60
49124;DHT22;48506;48.202;16.274;2024-03-25T09:22:49;12.50;73.80
49124;DHT22;48506;48.202;16.274;2024-03-25T09:25:16;12.70;73.70
49124;DHT22;48506;48.202;16.274;2024-03-25T09:27:49;13.00;73.90
49124;DHT22;48506;48.202;16.274;2024-03-25T09:30:16;13.10;71.50
49124;DHT22;48506;48.202;16.274;2024-03-25T09:32:43;13.00;71.90
49124;DHT22;48506;48.202;16.274;2024-03-25T09:35:10;13.00;72.20
49124;DHT22;48506;48.202;16.274;2024-03-25T09:37:36;13.10;72.90
49124;DHT22;48506;48.202;16.274;2024-03-25T09:40:03;13.30;72.00
49124;DHT22;48506;48.202;16.274;2024-03-25T09:45:16;13.60;71.80
49124;DHT22;48506;48.202;16.274;2024-03-25T09:47:46;13.50;71.60
49124;DHT22;48506;48.202;16.274;2024-03-25T09:50:13;13.50;72.10
49124;DHT22;48506;48.202;16.274;2024-03-25T09:52:49;13.50;71.30
49124;DHT22;48506;48.202;16.274;2024-03-25T09:55:15;13.60;72.20
49124;DHT22;48506;48.202;16.274;2024-03-25T09:57:43;13.80;72.50
49124;DHT22;48506;48.202;16.274;2024-03-25T10:00:09;14.10;72.40
49124;DHT22;48506;48.202;16.274;2024-03-25T10:02:38;14.30;71.70
49124;DHT22;48506;48.202;16.274;2024-03-25T10:05:05;14.40;68.80
49124;DHT22;48506;48.202;16.274;2024-03-25T10:07:33;14.40;70.70
49124;DHT22;48506;48.202;16.274;2024-03-25T10:10:04;14.40;68.90
49124;DHT22;48506;48.202;16.274;2024-03-25T10:12:31;14.40;69.20
49124;DHT22;48506;48.202;16.274;2024-03-25T10:14:57;14.50;70.00
49124;DHT22;48506;48.202;16.274;2024-03-25T10:17:23;14.70;68.50
49124;DHT22;48506;48.202;16.274;2024-03-25T10:19:49;14.60;67.00
49124;DHT22;48506;48.202;16.274;2024-03-25T10:22:15;14.40;67.30
49124;DHT22;48506;48.202;16.274;2024-03-25T10:24:43;14.30;67.70
49124;DHT22;48506;48.202;16.274;2024-03-25T10:29:52;14.30;69.20
49124;DHT22;48506;48.202;16.274;2024-03-25T10:32:20;14.50;68.90
49124;DHT22;48506;48.202;16.274;2024-03-25T10:34:46;14.60;68.60
49124;DHT22;48506;48.202;16.274;2024-03-25T10:37:13;14.70;67.20
49124;DHT22;48506;48.202;16.274;2024-03-25T10:39:50;15.00;68.10
49124;DHT22;48506;48.202;16.274;2024-03-25T10:42:21;15.30;66.00
49124;DHT22;48506;48.202;16.274;2024-03-25T10:44:48;15.20;65.80
49124;DHT22;48506;48.202;16.274;2024-03-25T10:47:21;15.00;65.00
49124;DHT22;48506;48.202;16.274;2024-03-25T10:49:57;14.90;65.60
49124;DHT22;48506;48.202;16.274;2024-03-25T10:52:27;15.10;65.40
49124;DHT22;48506;48.202;16.274;2024-03-25T10:54:55;15.00;65.20
49124;DHT22;48506;48.202;16.274;2024-03-25T10:57:22;14.90;66.50
49124;DHT22;48506;48.202;16.274;2024-03-25T10:59:49;15.00;66.40
49124;DHT22;48506;48.202;16.274;2024-03-25T11:02:15;14.90;66.30
49124;DHT22;48506;48.202;16.274;2024-03-25T11:04:44;15.10;66.20
49124;DHT22;48506;48.202;16.274;2024-03-25T11:07:15;15.20;65.10
49124;DHT22;48506;48.202;16.274;2024-03-25T11:09:42;15.40;66.60
49124;DHT22;48506;48.202;16.274;2024-03-25T11:12:12;15.50;66.10
49124;DHT22;48506;48.202;16.274;2024-03-25T11:14:38;15.60;66.30
49124;DHT22;48506;48.202;16.274;2024-03-25T11:17:16;15.80;65.00
49124;DHT22;48506;48.202;16.274;2024-03-25T11:19:42;15.70;63.80
49124;DHT22;48506;48.202;16.274;2024-03-25T11:22:10;15.50;63.70
49124;DHT22;48506;48.202;16.274;2024-03-25T11:24:37;15.50;64.50
49124;DHT22;48506;48.202;16.274;2024-03-25T11:27:07;15.50;64.90
49124;DHT22;48506;48.202;16.274;2024-03-25T11:29:34;15.80;64.00
49124;DHT22;48506;48.202;16.274;2024-03-25T11:32:05;15.90;61.40
49124;DHT22;48506;48.202;16.274;2024-03-25T11:34:32;15.50;60.80
49124;DHT22;48506;48.202;16.274;2024-03-25T11:36:58;15.10;63.10
49124;DHT22;48506;48.202;16.274;2024-03-25T11:39:25;14.90;63.40
49124;DHT22;48506;48.202;16.274;2024-03-25T11:41:53;14.70;63.10
49124;DHT22;48506;48.202;16.274;2024-03-25T11:44:19;14.70;64.30
49124;DHT22;48506;48.202;16.274;2024-03-25T11:46:45;14.70;64.40
49124;DHT22;48506;48.202;16.274;2024-03-25T11:49:15;14.70;65.20
49124;DHT22;48506;48.202;16.274;2024-03-25T11:51:44;14.70;65.60
49124;DHT22;48506;48.202;16.274;2024-03-25T11:54:12;14.90;64.70
49124;DHT22;48506;48.202;16.274;2024-03-25T11:56:38;15.30;63.10
49124;DHT22;48506;48.202;16.274;2024-03-25T11:59:04;15.30;63.60
49124;DHT22;48506;48.202;16.274;2024-03-25T12:01:31;15.10;62.20
49124;DHT22;48506;48.202;16.274;2024-03-25T12:03:57;14.80;62.80
49124;DHT22;48506;48.202;16.274;2024-03-25T12:06:23;15.10;65.30
49124;DHT22;48506;48.202;16.274;2024-03-25T12:08:49;15.10;62.20
49124;DHT22;48506;48.202;16.274;2024-03-25T12:11:33;14.70;62.30
49124;DHT22;48506;48.202;16.274;2024-03-25T12:14:01;14.40;63.10
49124;DHT22;48506;48.202;16.274;2024-03-25T12:16:27;14.60;65.90
49124;DHT22;48506;48.202;16.274;2024-03-25T12:18:53;15.00;64.30
49124;DHT22;48506;48.202;16.274;2024-03-25T12:21:19;15.40;62.00
49124;DHT22;48506;48.202;16.274;2024-03-25T12:23:47;15.40;62.20
49124;DHT22;48506;48.202;16.274;2024-03-25T12:26:13;15.20;63.00
49124;DHT22;48506;48.202;16.274;2024-03-25T12:28:40;14.80;61.80
49124;DHT22;48506;48.202;16.274;2024-03-25T12:31:08;14.60;62.90
49124;DHT22;48506;48.202;16.274;2024-03-25T12:33:44;14.70;63.00
49124;DHT22;48506;48.202;16.274;2024-03-25T12:36:13;14.60;62.20
49124;DHT22;48506;48.202;16.274;2024-03-25T12:38:39;14.50;62.10
49124;DHT22;48506;48.202;16.274;2024-03-25T12:41:09;14.30;62.80
49124;DHT22;48506;48.202;16.274;2024-03-25T12:43:41;14.30;62.10
49124;DHT22;48506;48.202;16.274;2024-03-25T12:46:07;14.30;62.90
49124;DHT22;48506;48.202;16.274;2024-03-25T12:48:35;14.60;63.00
49124;DHT22;48506;48.202;16.274;2024-03-25T12:51:02;15.00;62.00
49124;DHT22;48506;48.202;16.274;2024-03-25T12:53:28;15.30;61.90
49124;DHT22;48506;48.202;16.274;2024-03-25T12:55:54;15.70;61.70
49124;DHT22;48506;48.202;16.274;2024-03-25T12:58:20;15.70;59.80
49124;DHT22;48506;48.202;16.274;2024-03-25T13:00:46;15.70;61.20
49124;DHT22;48506;48.202;16.274;2024-03-25T13:03:13;15.90;61.40
49124;DHT22;48506;48.202;16.274;2024-03-25T13:05:42;16.10;61.40
49124;DHT22;48506;48.202;16.274;2024-03-25T13:08:09;16.50;62.20
49124;DHT22;48506;48.202;16.274;2024-03-25T13:10:35;16.70;61.80
49124;DHT22;48506;48.202;16.274;2024-03-25T13:13:02;17.10;62.10
49124;DHT22;48506;48.202;16.274;2024-03-25T13:15:28;17.00;58.30
49124;DHT22;48506;48.202;16.274;2024-03-25T13:17:54;16.80;59.50
49124;DHT22;48506;48.202;16.274;2024-03-25T13:20:20;16.70;57.80
49124;DHT22;48506;48.202;16.274;2024-03-25T13:22:46;16.50;59.30
49124;DHT22;48506;48.202;16.274;2024-03-25T13:25:13;16.30;60.60
49124;DHT22;48506;48.202;16.274;2024-03-25T13:27:39;16.30;60.80
49124;DHT22;48506;48.202;16.274;2024-03-25T13:30:06;16.60;59.90
49124;DHT22;48506;48.202;16.274;2024-03-25T13:32:32;16.70;60.60
49124;DHT22;48506;48.202;16.274;2024-03-25T13:34:59;16.90;60.40
49124;DHT22;48506;48.202;16.274;2024-03-25T13:37:26;17.30;59.90
49124;DHT22;48506;48.202;16.274;2024-03-25T13:39:52;17.30;58.50
49124;DHT22;48506;48.202;16.274;2024-03-25T13:42:18;17.10;57.50
49124;DHT22;48506;48.202;16.274;2024-03-25T13:44:44;16.90;58.70
49124;DHT22;48506;48.202;16.274;2024-03-25T13:47:10;16.90;59.50
49124;DHT22;48506;48.202;16.274;2024-03-25T13:49:36;16.80;58.80
49124;DHT22;48506;48.202;16.274;2024-03-25T13:52:03;16.60;59.80
49124;DHT22;48506;48.202;16.274;2024-03-25T13:54:30;16.60;60.60
49124;DHT22;48506;48.202;16.274;2024-03-25T13:56:57;16.90;60.00
49124;DHT22;48506;48.202;16.274;2024-03-25T13:59:23;17.20;58.90
49124;DHT22;48506;48.202;16.274;2024-03-25T14:01:49;17.60;58.90
49124;DHT22;48506;48.202;16.274;2024-03-25T14:04:15;18.00;58.40
49124;DHT22;48506;48.202;16.274;2024-03-25T14:06:41;18.30;58.60
49124;DHT22;48506;48.202;16.274;2024-03-25T14:09:07;18.10;56.40
49124;DHT22;48506;48.202;16.274;2024-03-25T14:11:38;17.80;56.60
49124;DHT22;48506;48.202;16.274;2024-03-25T14:14:04;17.60;56.10
49124;DHT22;48506;48.202;16.274;2024-03-25T14:16:30;17.60;58.80
49124;DHT22;48506;48.202;16.274;2024-03-25T14:18:56;17.90;57.70
49124;DHT22;48506;48.202;16.274;2024-03-25T14:21:22;17.80;54.80
49124;DHT22;48506;48.202;16.274;2024-03-25T14:23:48;17.50;56.40
49124;DHT22;48506;48.202;16.274;2024-03-25T14:26:14;17.70;55.70
49124;DHT22;48506;48.202;16.274;2024-03-25T14:28:43;17.80;55.80
49124;DHT22;48506;48.202;16.274;2024-03-25T14:31:09;17.70;54.90
49124;DHT22;48506;48.202;16.274;2024-03-25T14:33:35;17.40;55.60
49124;DHT22;48506;48.202;16.274;2024-03-25T14:36:01;17.80;55.90
49124;DHT22;48506;48.202;16.274;2024-03-25T14:38:27;18.30;55.20
49124;DHT22;48506;48.202;16.274;2024-03-25T14:40:52;19.10;54.20
49124;DHT22;48506;48.202;16.274;2024-03-25T14:43:18;19.70;53.90
49124;DHT22;48506;48.202;16.274;2024-03-25T14:45:46;20.10;53.00
49124;DHT22;48506;48.202;16.274;2024-03-25T14:48:12;20.00;52.60
49124;DHT22;48506;48.202;16.274;2024-03-25T14:50:38;19.60;53.40
49124;DHT22;48506;48.202;16.274;2024-03-25T14:53:04;19.60;53.20
49124;DHT22;48506;48.202;16.274;2024-03-25T14:55:30;19.30;54.40
49124;DHT22;48506;48.202;16.274;2024-03-25T14:57:56;18.90;53.70
49124;DHT22;48506;48.202;16.274;2024-03-25T15:00:23;18.70;54.80
49124;DHT22;48506;48.202;16.274;2024-03-25T15:02:52;18.60;53.70
49124;DHT22;48506;48.202;16.274;2024-03-25T15:05:18;19.10;53.80
49124;DHT22;48506;48.202;16.274;2024-03-25T15:07:46;19.80;52.50
49124;DHT22;48506;48.202;16.274;2024-03-25T15:10:12;20.70;51.10
49124;DHT22;48506;48.202;16.274;2024-03-25T15:12:38;20.90;50.30
49124;DHT22;48506;48.202;16.274;2024-03-25T15:15:06;21.10;49.50
49124;DHT22;48506;48.202;16.274;2024-03-25T15:17:34;20.50;49.70
49124;DHT22;48506;48.202;16.274;2024-03-25T15:20:00;20.40;50.40
49124;DHT22;48506;48.202;16.274;2024-03-25T15:22:26;20.20;50.30
49124;DHT22;48506;48.202;16.274;2024-03-25T15:24:52;19.50;50.50
49124;DHT22;48506;48.202;16.274;2024-03-25T15:27:18;18.70;51.30
49124;DHT22;48506;48.202;16.274;2024-03-25T15:29:44;18.40;52.20